Time;durP1;ratioP1;P1;durP2;ratioP2;P2;SDS_P1;SDS_P2;PMS_P1;PMS_P2;Temp;Humidity;BMP_temperature;BMP_pressure;BME280_temperature;BME280_humidity;BME280_pressure;Samples;Min_cycle;Max_cycle;Signal;HPM_P1;HPM_P2
2023/06/30 00:01:39;;;;;;;89.70;59.93;;;19.30;99.90;;;;;;5079698;28;20163;-77
2023/06/30 00:04:06;;;;;;;90.43;63.33;;;19.20;99.90;;;;;;5079734;28;20160;-77
2023/06/30 00:06:32;;;;;;;99.60;83.53;;;19.00;99.90;;;;;;5079144;28;20940;-77
2023/06/30 00:08:58;;;;;;;98.87;84.30;;;19.10;99.90;;;;;;5077311;28;20502;-77
2023/06/30 00:11:24;;;;;;;96.33;78.57;;;19.10;99.90;;;;;;5076908;28;20977;-77
2023/06/30 00:13:55;;;;;;;89.57;69.17;;;19.10;99.90;;;;;;5075838;28;20171;-77
2023/06/30 00:16:21;;;;;;;87.63;66.37;;;19.00;99.90;;;;;;5057978;28;20214;-77
2023/06/30 00:18:47;;;;;;;96.80;80.67;;;18.90;99.90;;;;;;5075890;28;20448;-77
2023/06/30 00:21:13;;;;;;;94.97;69.23;;;18.80;99.90;;;;;;5076746;28;20438;-77
2023/06/30 00:23:39;;;;;;;84.23;58.20;;;18.80;99.90;;;;;;5059963;28;20410;-76
2023/06/30 00:26:04;;;;;;;84.10;58.97;;;18.70;99.90;;;;;;5076039;28;20435;-77
2023/06/30 00:28:30;;;;;;;89.97;65.63;;;18.70;99.90;;;;;;5075705;28;20554;-77
2023/06/30 00:30:55;;;;;;;83.57;54.13;;;18.80;99.90;;;;;;5076503;28;20233;-77
2023/06/30 00:33:21;;;;;;;80.80;48.17;;;18.70;99.90;;;;;;5076057;28;20160;-77
2023/06/30 00:35:47;;;;;;;76.47;36.83;;;18.50;99.90;;;;;;5075817;28;20156;-79
2023/06/30 00:38:12;;;;;;;82.50;42.73;;;18.60;99.90;;;;;;5075977;28;20180;-76
2023/06/30 00:40:38;;;;;;;80.73;50.80;;;18.60;99.90;;;;;;5076404;28;20192;-77
2023/06/30 00:43:04;;;;;;;78.77;44.37;;;18.70;99.90;;;;;;5076174;28;20214;-77
2023/06/30 00:45:29;;;;;;;77.20;40.23;;;18.40;99.90;;;;;;5076370;28;20206;-77
2023/06/30 00:47:55;;;;;;;74.67;33.33;;;18.20;99.90;;;;;;5075913;28;20187;-77
2023/06/30 00:50:21;;;;;;;72.23;29.67;;;18.30;99.90;;;;;;5076199;28;20195;-77
2023/06/30 00:52:50;;;;;;;73.67;28.30;;;18.10;99.90;;;;;;5076544;28;20168;-77
2023/06/30 00:55:17;;;;;;;72.83;27.67;;;18.10;99.90;;;;;;5058228;28;20426;-76
2023/06/30 00:57:42;;;;;;;70.40;23.73;;;18.00;99.90;;;;;;5075412;28;20457;-77
2023/06/30 01:00:11;;;;;;;71.97;27.77;;;18.00;99.90;;;;;;5075800;28;20890;-78
2023/06/30 01:03:11;;;;;;;72.53;29.57;;;17.80;99.90;;;;;;5075444;28;20424;-77
2023/06/30 01:06:07;;;;;;;71.50;28.03;;;17.70;99.90;;;;;;5043221;28;20429;-78
2023/06/30 01:08:48;;;;;;;72.20;26.20;;;17.60;99.90;;;;;;5076100;28;20487;-77
2023/06/30 01:11:14;;;;;;;71.10;26.13;;;17.60;99.90;;;;;;5059158;28;20446;-77
2023/06/30 01:13:42;;;;;;;71.70;28.03;;;17.60;99.90;;;;;;5076995;28;20486;-77
2023/06/30 01:16:09;;;;;;;71.30;27.30;;;17.60;99.90;;;;;;5077274;28;20407;-78
2023/06/30 01:18:37;;;;;;;73.67;30.77;;;17.60;99.90;;;;;;5076973;28;20422;-79
2023/06/30 01:21:13;;;;;;;72.17;29.83;;;17.60;99.90;;;;;;5076717;28;20927;-77
2023/06/30 01:23:49;;;;;;;73.20;29.70;;;17.70;99.90;;;;;;5076924;28;20523;-77
2023/06/30 01:26:15;;;;;;;71.77;28.40;;;17.60;99.90;;;;;;5076825;28;20711;-77
2023/06/30 01:28:41;;;;;;;72.90;32.37;;;17.50;99.90;;;;;;5074769;28;20438;-77
2023/06/30 01:31:09;;;;;;;72.10;27.43;;;17.50;99.90;;;;;;5075228;28;20879;-77
2023/06/30 01:33:38;;;;;;;74.47;29.07;;;17.40;99.90;;;;;;5074751;28;20488;-77
2023/06/30 01:36:06;;;;;;;76.00;34.90;;;17.30;99.90;;;;;;5075022;28;20406;-77
2023/06/30 01:38:31;;;;;;;73.67;33.60;;;17.40;99.90;;;;;;5074696;28;20813;-77
2023/06/30 01:40:59;;;;;;;76.13;34.57;;;17.40;99.90;;;;;;5075159;28;20467;-77
2023/06/30 01:43:26;;;;;;;76.10;37.80;;;17.50;99.90;;;;;;5075191;28;20175;-77
2023/06/30 01:45:52;;;;;;;75.10;34.27;;;17.40;99.90;;;;;;5074844;28;20413;-77
2023/06/30 01:48:18;;;;;;;75.30;32.93;;;17.40;99.90;;;;;;5075015;28;20430;-77
2023/06/30 01:50:45;;;;;;;79.57;39.40;;;17.30;99.90;;;;;;5075293;28;20449;-77
2023/06/30 01:53:11;;;;;;;78.37;31.27;;;17.30;99.90;;;;;;5057040;28;20414;-77
2023/06/30 01:55:39;;;;;;;73.63;29.20;;;17.20;99.90;;;;;;5074791;28;20407;-77
2023/06/30 01:58:04;;;;;;;73.57;29.80;;;17.20;99.90;;;;;;5074827;28;20434;-77
2023/06/30 02:00:30;;;;;;;74.57;31.10;;;17.00;99.90;;;;;;5074802;28;20407;-77
2023/06/30 02:02:57;;;;;;;74.43;31.40;;;17.10;99.90;;;;;;5075349;28;20168;-77
2023/06/30 02:05:23;;;;;;;76.00;35.83;;;17.20;99.90;;;;;;5147313;22;20290;-82
2023/06/30 02:07:49;;;;;;;76.30;33.63;;;17.30;99.90;;;;;;5050388;28;20431;-80
2023/06/30 02:10:14;;;;;;;75.80;35.37;;;17.20;99.90;;;;;;5058301;28;20192;-80
2023/06/30 02:12:40;;;;;;;75.40;34.73;;;17.30;99.90;;;;;;5041363;28;20869;-80
2023/06/30 02:15:08;;;;;;;74.77;31.93;;;17.30;99.90;;;;;;5059909;28;20532;-80
2023/06/30 02:17:33;;;;;;;76.37;35.60;;;17.20;99.90;;;;;;5060242;28;20176;-81
2023/06/30 02:20:00;;;;;;;76.93;34.17;;;17.20;99.90;;;;;;5059824;28;20414;-81
2023/06/30 02:22:26;;;;;;;76.57;35.47;;;17.20;99.90;;;;;;5060122;28;20244;-81
2023/06/30 02:24:53;;;;;;;73.97;30.13;;;17.20;99.90;;;;;;5059931;28;20402;-81
2023/06/30 02:27:19;;;;;;;76.50;29.80;;;17.10;99.90;;;;;;5059518;28;20430;-80
2023/06/30 02:29:45;;;;;;;76.80;28.23;;;17.10;99.90;;;;;;5060430;28;20442;-81
2023/06/30 02:32:13;;;;;;;79.27;29.63;;;17.00;99.90;;;;;;5059788;28;20220;-81
2023/06/30 02:34:38;;;;;;;74.13;28.40;;;17.00;99.90;;;;;;5060520;28;20582;-80
2023/06/30 02:37:04;;;;;;;76.37;31.37;;;17.00;99.90;;;;;;5059829;28;20408;-81
2023/06/30 02:39:30;;;;;;;71.33;24.07;;;17.00;99.90;;;;;;5059638;28;20192;-81
2023/06/30 02:41:55;;;;;;;73.37;26.87;;;17.00;99.90;;;;;;5059586;28;20407;-81
2023/06/30 02:44:24;;;;;;;75.90;27.87;;;16.90;99.90;;;;;;5060018;28;20199;-81
2023/06/30 02:46:50;;;;;;;72.87;27.17;;;17.00;99.90;;;;;;5059469;28;20200;-81
2023/06/30 02:49:16;;;;;;;74.70;28.77;;;16.90;99.90;;;;;;5059715;28;20434;-81
2023/06/30 02:51:41;;;;;;;73.97;27.33;;;16.90;99.90;;;;;;5059142;28;20396;-80
2023/06/30 02:54:07;;;;;;;74.83;26.20;;;16.90;99.90;;;;;;5059729;28;20524;-81
2023/06/30 02:56:35;;;;;;;73.37;26.93;;;16.90;99.90;;;;;;5059683;28;20164;-81
2023/06/30 02:59:00;;;;;;;72.37;24.67;;;17.00;99.90;;;;;;5059537;28;20184;-81
2023/06/30 03:01:26;;;;;;;75.73;25.03;;;16.90;99.90;;;;;;5059237;28;20978;-81
2023/06/30 03:03:52;;;;;;;78.03;29.60;;;16.80;99.90;;;;;;5059241;28;20168;-81
2023/06/30 03:06:19;;;;;;;75.17;26.10;;;16.80;99.90;;;;;;5061082;28;20185;-81
2023/06/30 03:08:45;;;;;;;75.07;24.80;;;16.80;99.90;;;;;;5044264;28;20667;-81
2023/06/30 03:11:11;;;;;;;76.07;23.87;;;16.90;99.90;;;;;;5061957;28;20446;-81
2023/06/30 03:13:36;;;;;;;75.27;25.20;;;16.80;99.90;;;;;;5061636;28;20619;-80
2023/06/30 03:16:02;;;;;;;75.57;24.80;;;16.80;99.90;;;;;;5061604;28;20410;-81
2023/06/30 03:18:28;;;;;;;78.10;23.10;;;16.80;99.90;;;;;;5061546;28;20431;-81
2023/06/30 03:20:53;;;;;;;73.87;22.87;;;16.90;99.90;;;;;;5042619;28;20165;-81
2023/06/30 03:23:19;;;;;;;73.80;27.27;;;16.90;99.90;;;;;;5059287;28;20196;-81
2023/06/30 03:25:45;;;;;;;75.07;21.13;;;16.80;99.90;;;;;;5059210;28;20169;-81
2023/06/30 03:28:11;;;;;;;75.20;21.47;;;16.80;99.90;;;;;;5059224;28;20418;-81
2023/06/30 03:30:36;;;;;;;76.83;22.00;;;16.90;99.90;;;;;;5059358;28;20183;-81
2023/06/30 03:33:02;;;;;;;75.30;21.27;;;16.80;99.90;;;;;;5040736;28;20173;-81
2023/06/30 03:35:28;;;;;;;81.83;22.27;;;16.80;99.90;;;;;;5058768;28;20169;-81
2023/06/30 03:37:53;;;;;;;76.90;21.87;;;16.80;99.90;;;;;;5058831;28;20520;-81
2023/06/30 03:40:19;;;;;;;74.67;21.50;;;16.80;99.90;;;;;;5058862;28;20196;-81
2023/06/30 03:42:45;;;;;;;80.17;21.27;;;16.90;99.90;;;;;;5058708;28;20168;-81
2023/06/30 03:45:10;;;;;;;80.80;21.47;;;16.90;99.90;;;;;;5058708;28;20164;-81
2023/06/30 03:47:37;;;;;;;76.60;23.17;;;16.90;99.90;;;;;;5058383;28;20199;-81
2023/06/30 03:50:03;;;;;;;73.87;19.90;;;16.90;99.90;;;;;;5058766;28;20184;-81
2023/06/30 03:52:28;;;;;;;75.00;22.40;;;17.00;99.90;;;;;;5059186;28;20970;-81
2023/06/30 03:54:57;;;;;;;77.40;21.70;;;17.10;99.90;;;;;;5058000;28;20406;-81
2023/06/30 03:57:22;;;;;;;82.80;24.80;;;17.10;99.90;;;;;;5058228;28;20684;-81
2023/06/30 03:59:48;;;;;;;78.83;27.27;;;17.00;99.90;;;;;;5137125;22;20474;-81
2023/06/30 04:02:14;;;;;;;80.90;33.47;;;17.00;99.90;;;;;;5080375;28;20638;-81
2023/06/30 04:04:39;;;;;;;79.43;32.17;;;17.10;99.90;;;;;;5061943;28;20209;-81
2023/06/30 04:07:05;;;;;;;84.73;32.13;;;17.10;99.90;;;;;;5080002;28;20160;-81
2023/06/30 04:09:31;;;;;;;83.27;38.63;;;17.10;99.90;;;;;;5079189;28;20203;-81
2023/06/30 04:11:56;;;;;;;79.90;35.00;;;17.10;99.90;;;;;;5079818;28;20402;-81
2023/06/30 04:14:22;;;;;;;80.27;36.90;;;17.00;99.90;;;;;;5079918;28;20161;-81
2023/06/30 04:16:48;;;;;;;84.73;33.43;;;17.00;99.90;;;;;;5079095;28;20243;-81
2023/06/30 04:19:13;;;;;;;78.80;29.33;;;17.00;99.90;;;;;;5079756;28;20609;-81
2023/06/30 04:21:39;;;;;;;84.73;35.10;;;17.00;99.90;;;;;;5079577;28;20168;-81
2023/06/30 04:24:06;;;;;;;84.20;34.90;;;16.90;99.90;;;;;;5079849;28;20246;-81
2023/06/30 04:26:32;;;;;;;84.20;36.00;;;17.00;99.90;;;;;;5079300;28;20628;-81
2023/06/30 04:28:58;;;;;;;81.13;32.00;;;17.10;99.90;;;;;;5078944;28;20497;-81
2023/06/30 04:31:27;;;;;;;82.47;35.33;;;17.00;99.90;;;;;;5079902;28;20464;-81
2023/06/30 04:33:53;;;;;;;86.00;35.70;;;17.10;99.90;;;;;;5061355;28;20480;-81
2023/06/30 04:36:20;;;;;;;92.57;33.37;;;17.10;99.90;;;;;;5079479;28;20406;-81
2023/06/30 04:38:48;;;;;;;83.63;36.63;;;17.10;99.90;;;;;;5078881;28;20862;-81
2023/06/30 04:41:14;;;;;;;84.90;37.50;;;17.10;99.90;;;;;;5061359;28;20407;-81
2023/06/30 04:43:40;;;;;;;84.63;39.40;;;17.10;99.90;;;;;;5078713;28;20398;-81
2023/06/30 04:46:06;;;;;;;89.87;36.07;;;17.10;99.90;;;;;;5079582;28;20414;-81
2023/06/30 04:48:33;;;;;;;81.70;34.57;;;17.10;99.90;;;;;;5079251;28;20426;-81
2023/06/30 04:50:59;;;;;;;88.90;35.97;;;17.10;99.90;;;;;;5060890;28;20438;-81
2023/06/30 04:53:25;;;;;;;84.27;37.90;;;17.10;99.90;;;;;;5079077;28;20410;-81
2023/06/30 04:55:51;;;;;;;86.37;35.00;;;17.10;99.90;;;;;;5078465;28;20562;-81
2023/06/30 04:58:18;;;;;;;84.40;34.40;;;17.10;99.90;;;;;;5078708;28;20434;-81
2023/06/30 05:00:44;;;;;;;83.50;36.87;;;17.10;99.90;;;;;;5079267;28;20166;-81
2023/06/30 05:03:11;;;;;;;79.30;31.77;;;17.10;99.90;;;;;;5078838;28;20425;-81
2023/06/30 05:05:37;;;;;;;82.67;34.47;;;17.20;99.90;;;;;;5078348;28;20411;-81
2023/06/30 05:08:03;;;;;;;81.80;33.83;;;17.20;99.90;;;;;;5079045;28;20414;-81
2023/06/30 05:10:28;;;;;;;83.97;32.87;;;17.20;99.90;;;;;;5078661;28;20240;-81
2023/06/30 05:12:54;;;;;;;80.70;36.10;;;17.30;99.90;;;;;;5078718;28;20172;-81
2023/06/30 05:15:20;;;;;;;83.07;31.67;;;17.30;99.90;;;;;;5078567;28;20581;-81
2023/06/30 05:17:45;;;;;;;78.93;32.00;;;17.30;99.90;;;;;;5060239;28;20188;-81
2023/06/30 05:20:12;;;;;;;78.60;30.17;;;17.40;99.90;;;;;;5078990;28;20172;-81
2023/06/30 05:22:37;;;;;;;82.33;28.90;;;17.40;99.90;;;;;;5078563;28;20294;-81
2023/06/30 05:25:04;;;;;;;76.13;21.77;;;17.40;99.90;;;;;;5079254;28;20426;-81
2023/06/30 05:27:30;;;;;;;79.27;24.27;;;17.50;99.90;;;;;;5078481;28;20184;-81
2023/06/30 05:29:55;;;;;;;74.73;20.77;;;17.60;99.90;;;;;;5078151;28;20587;-81
2023/06/30 05:32:22;;;;;;;77.40;21.50;;;17.60;99.90;;;;;;5059811;28;20446;-81
2023/06/30 05:34:48;;;;;;;75.37;21.10;;;17.60;99.90;;;;;;5059454;28;20175;-81
2023/06/30 05:37:14;;;;;;;75.97;20.60;;;17.60;99.90;;;;;;5077160;28;20418;-81
2023/06/30 05:39:40;;;;;;;75.63;18.20;;;17.70;99.90;;;;;;5078104;28;20467;-81
2023/06/30 05:42:05;;;;;;;72.97;12.67;;;17.80;99.90;;;;;;5077476;28;20204;-81
2023/06/30 05:44:31;;;;;;;70.27;9.17;;;17.90;99.90;;;;;;5076657;28;20164;-81
2023/06/30 05:46:57;;;;;;;72.13;10.70;;;17.90;99.90;;;;;;5081529;28;20414;-80
2023/06/30 05:49:24;;;;;;;71.40;9.10;;;18.00;99.90;;;;;;5082059;28;20255;-79
2023/06/30 05:51:52;;;;;;;74.80;9.13;;;18.10;99.90;;;;;;5082739;28;20164;-79
2023/06/30 05:54:18;;;;;;;80.30;9.67;;;18.10;99.90;;;;;;5081815;28;20407;-79
2023/06/30 05:56:56;;;;;;;76.53;8.10;;;18.10;99.90;;;;;;5082337;28;20433;-79
2023/06/30 05:59:21;;;;;;;73.43;7.80;;;18.10;99.90;;;;;;5082745;28;20179;-79
2023/06/30 06:01:47;;;;;;;79.07;7.60;;;18.10;99.90;;;;;;5082483;28;20413;-79
2023/06/30 06:04:13;;;;;;;78.00;8.20;;;18.00;99.90;;;;;;5081953;28;20156;-79
2023/06/30 06:06:38;;;;;;;69.07;7.00;;;18.00;99.90;;;;;;5082103;28;20175;-79
2023/06/30 06:09:04;;;;;;;75.13;6.90;;;17.80;99.90;;;;;;5082409;28;20188;-81
2023/06/30 06:11:29;;;;;;;71.10;7.37;;;17.90;99.90;;;;;;5082387;28;20543;-81
2023/06/30 06:13:55;;;;;;;71.97;7.13;;;17.80;99.90;;;;;;5082262;28;20184;-81
2023/06/30 06:16:21;;;;;;;71.10;6.80;;;17.80;99.90;;;;;;5082126;28;20169;-81
2023/06/30 06:18:47;;;;;;;71.87;7.07;;;17.80;99.90;;;;;;5064047;28;20188;-81
2023/06/30 06:21:13;;;;;;;69.67;7.50;;;17.70;99.90;;;;;;5082209;28;20897;-81
2023/06/30 06:23:39;;;;;;;74.20;7.13;;;17.60;99.90;;;;;;5081775;28;20402;-81
2023/06/30 06:26:04;;;;;;;71.17;6.03;;;17.50;99.90;;;;;;5082444;28;20893;-81
2023/06/30 06:28:30;;;;;;;71.20;6.87;;;17.40;99.90;;;;;;5081065;28;20180;-81
2023/06/30 06:30:56;;;;;;;72.87;7.70;;;17.50;99.90;;;;;;5081767;28;20205;-81
2023/06/30 06:33:25;;;;;;;74.63;7.60;;;17.50;99.90;;;;;;5081676;28;20493;-81
2023/06/30 06:35:52;;;;;;;69.63;6.60;;;17.50;99.90;;;;;;5080980;28;20390;-81
2023/06/30 06:38:20;;;;;;;71.03;7.90;;;17.50;99.90;;;;;;5080855;28;20418;-80
2023/06/30 06:40:47;;;;;;;73.17;8.10;;;17.50;99.90;;;;;;5080193;28;20412;-80
2023/06/30 06:43:13;;;;;;;79.20;8.10;;;17.50;99.90;;;;;;5065059;28;20417;-80
2023/06/30 06:45:41;;;;;;;73.00;6.43;;;17.60;99.90;;;;;;5082864;28;20402;-80
2023/06/30 06:48:27;;;;;;;70.10;7.10;;;17.70;99.90;;;;;;5083965;28;20970;-81
2023/06/30 06:50:56;;;;;;;74.87;6.57;;;17.70;99.90;;;;;;5083190;28;20429;-80
2023/06/30 06:53:26;;;;;;;72.67;9.03;;;17.70;99.90;;;;;;5083699;28;20399;-80
2023/06/30 06:55:53;;;;;;;71.83;8.87;;;17.70;99.90;;;;;;5064938;28;20410;-81
2023/06/30 06:58:20;;;;;;;71.97;9.90;;;17.70;99.90;;;;;;5064976;28;20441;-80
2023/06/30 07:00:47;;;;;;;70.93;11.17;;;17.70;99.90;;;;;;5081214;28;20394;-81
2023/06/30 07:03:13;;;;;;;72.40;9.10;;;17.80;99.90;;;;;;5082568;28;20410;-81
2023/06/30 07:05:40;;;;;;;73.97;8.80;;;17.90;99.90;;;;;;5081377;28;20905;-81
2023/06/30 07:08:06;;;;;;;72.37;6.27;;;17.90;99.90;;;;;;5080582;28;20183;-81
2023/06/30 07:10:32;;;;;;;74.90;6.20;;;17.70;95.40;;;;;;5062775;28;20850;-81
2023/06/30 07:12:58;;;;;;;75.83;6.77;;;17.80;96.00;;;;;;5082375;28;20406;-81
2023/06/30 07:15:24;;;;;;;72.93;7.70;;;17.90;99.90;;;;;;5081430;28;20160;-81
2023/06/30 07:17:49;;;;;;;72.10;6.47;;;17.90;99.90;;;;;;5175147;22;20274;-80
2023/06/30 07:25:11;;;;;;;72.73;6.07;;;17.80;85.50;;;;;;5078518;28;20826;-81
2023/06/30 07:27:38;;;;;;;69.77;6.47;;;17.90;94.40;;;;;;5079883;28;20432;-81
2023/06/30 07:30:05;;;;;;;69.27;5.60;;;18.10;90.60;;;;;;5061870;28;20192;-81
2023/06/30 07:32:34;;;;;;;73.50;5.50;;;18.10;85.50;;;;;;5080237;28;20437;-81
2023/06/30 07:35:01;;;;;;;67.50;5.57;;;18.10;82.60;;;;;;5062415;28;20398;-81
2023/06/30 07:37:27;;;;;;;71.60;6.10;;;18.20;84.80;;;;;;5079864;28;20909;-81
2023/06/30 07:39:53;;;;;;;75.93;5.90;;;18.10;66.40;;;;;;5061457;28;20457;-81
2023/06/30 07:42:18;;;;;;;70.83;4.97;;;18.10;61.60;;;;;;5061630;28;20172;-81
2023/06/30 07:44:44;;;;;;;67.27;5.50;;;18.20;59.40;;;;;;5079746;28;20225;-81
2023/06/30 07:47:10;;;;;;;70.00;4.73;;;18.10;56.60;;;;;;5061697;28;20164;-81
2023/06/30 07:49:36;;;;;;;69.50;5.30;;;18.00;45.10;;;;;;5079409;28;20164;-81
2023/06/30 07:52:01;;;;;;;66.97;4.60;;;18.00;28.10;;;;;;5079483;28;20505;-81
2023/06/30 07:54:27;;;;;;;68.70;4.77;;;17.90;31.30;;;;;;5079205;28;20194;-81
2023/06/30 07:56:52;;;;;;;75.67;4.67;;;17.80;39.10;;;;;;5078616;28;20259;-82
2023/06/30 07:59:18;;;;;;;70.10;4.30;;;18.00;52.20;;;;;;5078797;28;20221;-81
2023/06/30 08:01:44;;;;;;;72.93;4.20;;;18.10;51.70;;;;;;5079035;28;20632;-82
2023/06/30 08:04:11;;;;;;;71.77;4.10;;;18.20;50.10;;;;;;5078608;28;20247;-81
2023/06/30 08:06:36;;;;;;;68.57;4.30;;;18.30;43.60;;;;;;5143413;22;20216;-79
2023/06/30 08:09:02;;;;;;;72.10;12.47;;;18.40;40.80;;;;;;5082534;28;20429;-78
2023/06/30 08:11:28;;;;;;;70.87;15.80;;;18.50;19.20;;;;;;5082590;28;20718;-78
2023/06/30 08:13:53;;;;;;;71.47;13.30;;;18.40;7.70;;;;;;5081484;28;20230;-78
2023/06/30 08:16:19;;;;;;;68.70;12.50;;;18.40;14.70;;;;;;5081535;28;20167;-79
2023/06/30 08:18:45;;;;;;;70.20;11.00;;;18.40;14.20;;;;;;5082275;28;20206;-79
2023/06/30 08:21:10;;;;;;;71.10;12.03;;;18.40;3.40;;;;;;5082451;28;20170;-78
2023/06/30 08:23:36;;;;;;;67.60;11.37;;;18.40;1.60;;;;;;5082768;28;20182;-78
2023/06/30 08:26:02;;;;;;;70.10;13.67;;;18.40;1.60;;;;;;5065002;28;20658;-79
2023/06/30 08:28:27;;;;;;;73.03;15.93;;;18.40;14.00;;;;;;5083069;28;20183;-77
2023/06/30 08:30:54;;;;;;;71.53;16.10;;;18.50;18.00;;;;;;5083391;28;20196;-79
2023/06/30 08:33:28;;;;;;;74.50;13.40;;;18.60;14.70;;;;;;5065558;28;20172;-79
2023/06/30 08:35:54;;;;;;;75.17;6.87;;;18.70;9.60;;;;;;5082621;28;20803;-79
2023/06/30 08:38:20;;;;;;;70.77;12.33;;;18.60;1.00;;;;;;5082412;28;20944;-78
2023/06/30 08:40:45;;;;;;;71.30;13.80;;;18.50;2.60;;;;;;5083117;28;20403;-79
2023/06/30 08:43:11;;;;;;;69.90;13.83;;;18.60;12.00;;;;;;5082969;28;20165;-79
2023/06/30 08:45:42;;;;;;;70.20;16.07;;;18.60;5.80;;;;;;5083917;28;20169;-79
2023/06/30 08:48:09;;;;;;;69.03;6.97;;;18.70;7.30;;;;;;5083024;28;20199;-79
2023/06/30 08:50:35;;;;;;;67.87;8.60;;;18.70;1.00;;;;;;5081963;28;20824;-78
2023/06/30 08:53:04;;;;;;;71.60;4.23;;;18.70;1.00;;;;;;5082182;28;20408;-78
2023/06/30 08:55:30;;;;;;;70.30;4.77;;;18.80;1.00;;;;;;5082686;28;20889;-79
2023/06/30 08:57:57;;;;;;;66.57;3.40;;;18.90;1.00;;;;;;5082878;28;20425;-79
2023/06/30 09:00:26;;;;;;;70.13;4.00;;;18.80;1.00;;;;;;5081804;28;20174;-79
2023/06/30 09:02:53;;;;;;;66.90;4.47;;;18.80;1.00;;;;;;5082642;28;20473;-77
2023/06/30 09:05:25;;;;;;;66.30;3.50;;;18.90;1.00;;;;;;5082044;28;20417;-79
2023/06/30 09:07:55;;;;;;;66.63;3.30;;;19.10;1.00;;;;;;5082262;28;20433;-80
2023/06/30 09:10:27;;;;;;;67.10;3.67;;;19.10;1.00;;;;;;5082005;28;20467;-79
2023/06/30 09:12:59;;;;;;;77.70;3.57;;;19.20;1.00;;;;;;5064526;28;20482;-77
2023/06/30 09:15:25;;;;;;;66.00;2.90;;;19.20;1.00;;;;;;5064408;28;20406;-79
2023/06/30 09:17:54;;;;;;;68.53;3.60;;;19.30;1.00;;;;;;5081979;28;20422;-77
2023/06/30 09:20:21;;;;;;;69.30;2.93;;;19.40;1.00;;;;;;5081985;28;20249;-79
2023/06/30 09:22:47;;;;;;;64.97;2.60;;;19.50;1.00;;;;;;5082339;28;20878;-79
2023/06/30 09:25:24;;;;;;;70.37;3.50;;;19.60;1.00;;;;;;5082627;28;20444;-79
2023/06/30 09:27:50;;;;;;;66.17;2.87;;;19.60;1.00;;;;;;5082138;28;20425;-79
2023/06/30 09:30:16;;;;;;;66.80;2.90;;;19.80;1.00;;;;;;5083049;28;20445;-78
2023/06/30 09:32:42;;;;;;;66.10;3.33;;;19.90;1.00;;;;;;5081874;28;20168;-79
2023/06/30 09:35:08;;;;;;;73.13;3.53;;;20.00;1.00;;;;;;5081552;28;20676;-80
2023/06/30 09:37:44;;;;;;;68.00;3.00;;;20.00;1.00;;;;;;5082989;28;20790;-79
2023/06/30 09:40:23;;;;;;;66.40;3.10;;;20.10;1.00;;;;;;5082005;28;20401;-78
2023/06/30 09:42:55;;;;;;;68.57;3.13;;;20.10;1.00;;;;;;5082285;28;20391;-78
2023/06/30 09:45:20;;;;;;;67.10;2.97;;;20.30;1.00;;;;;;5082038;28;20740;-78
2023/06/30 09:47:53;;;;;;;66.00;2.80;;;20.40;1.00;;;;;;5064494;28;20445;-79
2023/06/30 09:50:30;;;;;;;64.90;2.53;;;20.60;1.00;;;;;;5082627;28;20251;-79
2023/06/30 09:52:56;;;;;;;65.40;2.70;;;20.80;1.00;;;;;;5082630;28;20394;-78
2023/06/30 09:55:22;;;;;;;65.70;3.20;;;21.00;1.00;;;;;;5081363;28;20402;-79
2023/06/30 09:57:47;;;;;;;69.67;3.33;;;21.00;1.00;;;;;;5081829;28;20214;-79
2023/06/30 10:00:14;;;;;;;65.97;3.03;;;21.10;1.00;;;;;;5081904;28;20453;-79
2023/06/30 10:02:40;;;;;;;69.37;4.33;;;21.20;1.00;;;;;;5082045;28;20221;-78
2023/06/30 10:05:12;;;;;;;66.37;3.17;;;21.30;1.00;;;;;;5063641;28;20406;-79
2023/06/30 10:07:41;;;;;;;66.17;3.77;;;21.60;1.00;;;;;;5063525;28;20449;-78
2023/06/30 10:10:11;;;;;;;69.10;5.30;;;21.90;1.00;;;;;;5082395;28;20440;-78
2023/06/30 10:12:41;;;;;;;66.77;4.87;;;22.10;1.00;;;;;;5081450;28;20401;-78
2023/06/30 10:15:09;;;;;;;70.67;4.80;;;22.10;1.00;;;;;;5063371;28;20411;-78
2023/06/30 10:17:37;;;;;;;67.83;4.37;;;22.10;1.00;;;;;;5063542;28;20493;-79
2023/06/30 10:20:06;;;;;;;70.37;3.53;;;22.30;1.00;;;;;;5062899;28;20513;-78
2023/06/30 10:22:32;;;;;;;67.33;3.20;;;22.10;1.00;;;;;;5063501;28;20921;-78
2023/06/30 10:24:59;;;;;;;66.77;2.80;;;22.10;1.00;;;;;;5063117;28;20421;-79
2023/06/30 10:27:25;;;;;;;67.50;3.03;;;22.20;1.00;;;;;;5063080;28;20437;-78
2023/06/30 10:29:52;;;;;;;66.27;2.67;;;22.20;1.00;;;;;;5081412;28;20520;-79
2023/06/30 10:32:20;;;;;;;70.00;3.37;;;22.30;1.00;;;;;;5083744;28;20436;-78
2023/06/30 10:34:47;;;;;;;67.97;3.40;;;22.50;1.00;;;;;;5084589;28;20905;-79
2023/06/30 10:37:14;;;;;;;68.40;3.40;;;22.80;1.00;;;;;;5085411;28;20425;-80
2023/06/30 10:39:40;;;;;;;69.80;3.93;;;22.70;1.00;;;;;;5085337;28;20405;-80
2023/06/30 10:42:06;;;;;;;68.17;3.27;;;22.70;1.00;;;;;;5084708;28;20387;-79
2023/06/30 10:44:46;;;;;;;70.53;3.60;;;22.70;1.00;;;;;;5084192;28;20168;-78
2023/06/30 10:47:12;;;;;;;69.10;3.50;;;22.90;1.00;;;;;;5066444;28;20410;-78
2023/06/30 10:49:39;;;;;;;67.60;3.90;;;23.00;1.00;;;;;;5084538;28;20406;-78
2023/06/30 10:52:10;;;;;;;69.13;4.63;;;23.20;1.00;;;;;;5084010;28;20466;-79
2023/06/30 10:54:44;;;;;;;68.00;5.20;;;23.50;1.00;;;;;;5082713;28;20444;-79
2023/06/30 10:57:18;;;;;;;69.83;5.93;;;23.80;1.00;;;;;;5082992;28;20748;-79
2023/06/30 10:59:44;;;;;;;71.50;5.83;;;23.60;1.00;;;;;;5084523;28;20862;-78
2023/06/30 11:02:11;;;;;;;68.30;5.07;;;23.40;1.00;;;;;;5083397;28;20423;-80
2023/06/30 11:04:37;;;;;;;68.30;4.97;;;23.50;1.00;;;;;;5082051;28;20901;-79
2023/06/30 11:07:03;;;;;;;67.90;5.70;;;23.80;1.00;;;;;;5082631;28;20432;-79
2023/06/30 11:09:49;;;;;;;68.67;5.80;;;23.60;1.00;;;;;;5083449;28;20734;-78
2023/06/30 11:12:19;;;;;;;67.60;5.40;;;23.50;1.00;;;;;;5065484;28;20414;-78
2023/06/30 11:15:03;;;;;;;68.67;5.10;;;23.40;1.00;;;;;;5082446;28;20893;-78
2023/06/30 11:17:50;;;;;;;68.20;5.67;;;23.80;1.00;;;;;;5064176;28;20430;-78
2023/06/30 11:20:16;;;;;;;67.23;4.97;;;23.90;1.00;;;;;;5063980;28;20402;-79
2023/06/30 11:23:04;;;;;;;70.80;5.40;;;23.90;1.00;;;;;;5082975;28;20394;-79
2023/06/30 11:25:35;;;;;;;69.57;6.17;;;23.70;1.00;;;;;;5082928;28;20390;-78
2023/06/30 11:28:04;;;;;;;67.80;5.70;;;23.80;1.00;;;;;;5082093;28;20413;-80
2023/06/30 11:30:38;;;;;;;69.07;5.70;;;23.70;1.00;;;;;;5081349;28;20457;-78
2023/06/30 11:33:05;;;;;;;67.30;4.70;;;24.00;1.00;;;;;;5081772;28;20976;-79
2023/06/30 11:35:33;;;;;;;69.33;6.00;;;24.30;1.00;;;;;;5064235;28;20419;-78
2023/06/30 11:37:59;;;;;;;68.37;4.93;;;24.30;1.00;;;;;;5064554;28;20427;-79
2023/06/30 11:40:24;;;;;;;68.30;6.50;;;24.40;1.00;;;;;;5083626;28;20428;-78
2023/06/30 11:42:52;;;;;;;69.80;7.00;;;24.80;1.00;;;;;;5082009;28;20169;-78
2023/06/30 11:45:27;;;;;;;68.33;6.10;;;25.10;1.00;;;;;;5064391;28;20184;-78
2023/06/30 11:47:55;;;;;;;69.07;7.00;;;25.00;1.00;;;;;;5064708;28;20435;-78
2023/06/30 11:50:21;;;;;;;69.40;5.70;;;25.10;1.00;;;;;;5082534;28;20446;-78
2023/06/30 11:52:49;;;;;;;69.60;5.60;;;24.90;1.00;;;;;;5084107;28;20446;-78
2023/06/30 11:55:16;;;;;;;69.10;5.47;;;25.00;1.00;;;;;;5063967;28;20409;-78
2023/06/30 11:57:44;;;;;;;70.83;6.37;;;25.00;1.00;;;;;;5064581;28;20436;-78
2023/06/30 12:00:19;;;;;;;74.40;5.50;;;25.20;1.00;;;;;;5064243;28;20410;-78
2023/06/30 12:02:47;;;;;;;71.07;5.27;;;25.40;1.00;;;;;;5063857;28;20418;-78
2023/06/30 12:05:39;;;;;;;68.87;6.23;;;25.50;1.00;;;;;;5082518;28;20413;-79
2023/06/30 12:08:06;;;;;;;71.00;5.80;;;25.70;1.00;;;;;;5061213;28;20465;-79
2023/06/30 12:10:39;;;;;;;69.57;5.47;;;25.50;1.00;;;;;;5064449;28;20460;-79
2023/06/30 12:13:08;;;;;;;67.90;4.30;;;25.10;1.00;;;;;;5082580;28;20403;-78
2023/06/30 12:15:35;;;;;;;69.27;5.57;;;24.60;1.00;;;;;;5064312;28;20506;-78
2023/06/30 12:18:04;;;;;;;68.57;4.80;;;24.50;1.00;;;;;;5082801;28;20455;-78
2023/06/30 12:20:38;;;;;;;69.63;4.73;;;24.00;1.00;;;;;;5064570;28;20418;-79
2023/06/30 12:23:05;;;;;;;67.60;4.50;;;23.80;1.00;;;;;;5082545;28;20912;-79
2023/06/30 12:25:33;;;;;;;70.00;5.40;;;23.50;1.00;;;;;;5082361;28;20407;-79
2023/06/30 12:28:06;;;;;;;68.90;6.00;;;23.30;1.00;;;;;;5083313;28;20532;-79
2023/06/30 12:30:32;;;;;;;68.70;5.83;;;23.20;1.00;;;;;;5083000;28;20835;-78
2023/06/30 12:33:00;;;;;;;68.97;5.60;;;23.50;1.00;;;;;;5082390;28;20407;-79
2023/06/30 12:35:41;;;;;;;75.67;5.57;;;23.70;1.00;;;;;;5082663;28;20402;-79
2023/06/30 12:38:11;;;;;;;70.67;5.97;;;23.90;1.00;;;;;;5082675;28;20448;-79
2023/06/30 12:40:38;;;;;;;70.70;5.87;;;23.80;1.00;;;;;;5082048;28;20383;-79
2023/06/30 12:43:04;;;;;;;71.20;5.83;;;23.70;1.00;;;;;;5081940;28;20762;-79